Time;durP1;ratioP1;P1;durP2;ratioP2;P2;SDS_P1;SDS_P2;PMS_P1;PMS_P2;Temp;Humidity;BMP_temperature;BMP_pressure;BME280_temperature;BME280_humidity;BME280_pressure;Samples;Min_cycle;Max_cycle;Signal;HPM_P1;HPM_P2
2021/10/05 00:03:19;;;;;;;4.05;3.65;;;;;;;13.13;95.18;95911.06;5120127;57;20232;-74
2021/10/05 00:08:22;;;;;;;8.10;3.40;;;;;;;13.18;94.81;95892.94;5120008;57;20322;-74
2021/10/05 00:13:24;;;;;;;4.28;3.60;;;;;;;13.08;94.96;95880.47;5120311;57;20131;-74
2021/10/05 00:18:26;;;;;;;4.53;3.90;;;;;;;13.07;95.11;95876.19;5119055;57;20131;-74
2021/10/05 00:23:29;;;;;;;4.13;3.58;;;;;;;13.23;94.12;95881.16;5119984;57;20140;-74
2021/10/05 00:28:31;;;;;;;4.38;3.97;;;;;;;13.17;94.79;95858.13;5119926;57;20140;-74
2021/10/05 00:33:34;;;;;;;4.35;3.95;;;;;;;13.00;95.54;95857.19;5119972;57;20166;-74
2021/10/05 00:38:36;;;;;;;6.07;4.20;;;;;;;12.92;97.30;95854.06;5120138;57;20131;-74
2021/10/05 00:43:38;;;;;;;4.85;4.35;;;;;;;12.92;97.25;95857.63;5119863;57;20234;-74
2021/10/05 00:48:41;;;;;;;4.75;4.18;;;;;;;12.93;97.25;95861.91;5119664;57;20118;-73
2021/10/05 00:53:43;;;;;;;7.93;5.40;;;;;;;12.98;97.34;95843.06;5119414;57;20166;-74
2021/10/05 00:58:46;;;;;;;6.57;5.18;;;;;;;12.79;99.57;95837.81;5119733;57;20123;-74
2021/10/05 01:03:48;;;;;;;6.78;5.18;;;;;;;12.91;99.50;95827.63;5119439;57;20131;-74
2021/10/05 01:08:51;;;;;;;6.13;5.22;;;;;;;12.69;99.84;95811.50;5126898;57;20113;-74
2021/10/05 01:13:54;;;;;;;8.30;5.47;;;;;;;12.87;99.25;95827.81;5119056;57;20147;-75
2021/10/05 01:18:56;;;;;;;5.68;4.57;;;;;;;13.06;98.91;95802.56;5119405;57;20631;-74
2021/10/05 01:24:10;;;;;;;6.13;4.93;;;;;;;13.03;99.09;95811.81;5119535;58;20136;-74
2021/10/05 01:29:19;;;;;;;9.02;5.60;;;;;;;12.92;99.07;95802.16;5119234;58;20140;-74
2021/10/05 01:34:22;;;;;;;9.75;6.25;;;;;;;12.82;99.29;95788.97;5119273;58;20122;-74
2021/10/05 01:39:30;;;;;;;6.22;5.25;;;;;;;12.86;99.88;95781.94;5119690;58;20144;-75
2021/10/05 01:44:34;;;;;;;8.38;5.68;;;;;;;12.87;100.00;95788.22;5119268;58;20127;-74
2021/10/05 01:49:38;;;;;;;9.38;6.32;;;;;;;12.87;100.00;95777.91;5119274;58;20205;-74
2021/10/05 01:54:40;;;;;;;9.55;6.53;;;;;;;12.58;100.00;95752.41;5119376;58;20118;-74
2021/10/05 01:59:42;;;;;;;8.18;6.82;;;;;;;12.70;100.00;95749.28;5118768;58;20122;-74
2021/10/05 02:04:45;;;;;;;7.85;6.65;;;;;;;12.74;100.00;95737.97;5120717;57;20126;-75
2021/10/05 02:09:48;;;;;;;8.93;7.20;;;;;;;12.70;100.00;95729.09;5121790;57;20127;-74
2021/10/05 02:14:50;;;;;;;10.10;7.32;;;;;;;12.73;100.00;95730.91;5121966;57;20583;-74
2021/10/05 02:19:52;;;;;;;10.93;6.95;;;;;;;12.87;100.00;95724.44;5121810;57;20149;-74
2021/10/05 02:24:56;;;;;;;8.75;6.75;;;;;;;12.83;100.00;95730.22;5121779;57;20132;-74
2021/10/05 02:29:59;;;;;;;8.20;6.75;;;;;;;12.83;100.00;95721.91;5121992;57;20306;-74
2021/10/05 02:35:02;;;;;;;9.45;7.53;;;;;;;12.89;100.00;95706.06;5121692;57;20132;-74
2021/10/05 02:40:08;;;;;;;9.75;7.55;;;;;;;12.81;100.00;95702.25;5122442;57;20149;-74
2021/10/05 02:45:11;;;;;;;9.00;7.13;;;;;;;12.77;100.00;95698.94;5121696;57;20136;-74
2021/10/05 02:50:13;;;;;;;8.75;7.45;;;;;;;12.63;100.00;95679.66;5121209;57;20593;-74
2021/10/05 02:55:15;;;;;;;12.38;8.65;;;;;;;12.53;100.00;95658.91;5121515;57;20122;-75
2021/10/05 03:00:18;;;;;;;11.15;8.02;;;;;;;12.71;100.00;95664.84;5121149;57;20148;-75
2021/10/05 03:05:20;;;;;;;9.60;7.47;;;;;;;12.61;100.00;95655.22;5121203;57;20119;-74
2021/10/05 03:10:23;;;;;;;9.43;7.97;;;;;;;12.53;100.00;95645.06;5121000;57;20166;-74
2021/10/05 03:15:26;;;;;;;10.07;7.88;;;;;;;12.62;100.00;95615.13;5120938;57;20126;-74
2021/10/05 03:20:29;;;;;;;10.18;8.07;;;;;;;12.64;100.00;95607.09;5121367;57;20136;-74
2021/10/05 03:25:31;;;;;;;11.05;8.23;;;;;;;12.73;100.00;95637.38;5121056;57;20132;-74
2021/10/05 03:30:34;;;;;;;12.68;7.95;;;;;;;12.85;100.00;95654.88;5121308;57;20268;-74
2021/10/05 03:35:36;;;;;;;12.30;8.57;;;;;;;12.79;100.00;95648.53;5120842;57;20153;-75
2021/10/05 03:40:38;;;;;;;14.70;10.00;;;;;;;12.71;100.00;95628.81;5121447;57;20149;-75
2021/10/05 03:45:41;;;;;;;11.68;8.50;;;;;;;12.76;100.00;95622.56;5120630;57;20131;-75
2021/10/05 03:50:44;;;;;;;11.38;8.43;;;;;;;12.93;100.00;95623.41;5120644;57;20131;-75
2021/10/05 03:55:52;;;;;;;9.65;7.90;;;;;;;12.75;100.00;95612.72;5120615;57;20127;-74
2021/10/05 04:00:55;;;;;;;12.57;9.27;;;;;;;12.67;100.00;95600.56;5120827;57;20162;-74
2021/10/05 04:05:58;;;;;;;12.43;9.07;;;;;;;12.79;100.00;95613.25;5120585;57;20757;-74
2021/10/05 04:11:01;;;;;;;16.55;10.63;;;;;;;12.86;100.00;95632.22;5120226;57;20131;-74
2021/10/05 04:16:04;;;;;;;13.00;9.35;;;;;;;12.83;100.00;95605.47;5120156;57;20140;-74
2021/10/05 04:21:07;;;;;;;13.38;8.60;;;;;;;12.89;100.00;95606.25;5120088;57;20144;-74
2021/10/05 04:26:09;;;;;;;10.63;8.00;;;;;;;12.80;100.00;95617.53;5119611;57;20140;-74
2021/10/05 04:31:12;;;;;;;12.10;8.68;;;;;;;12.69;100.00;95613.91;5120221;57;20851;-74
2021/10/05 04:36:14;;;;;;;12.30;8.35;;;;;;;12.82;100.00;95628.16;5120333;57;20211;-74
2021/10/05 04:41:17;;;;;;;14.30;8.40;;;;;;;12.63;100.00;95627.75;5120056;57;20122;-74
2021/10/05 04:46:19;;;;;;;13.05;8.57;;;;;;;12.74;100.00;95638.16;5119648;57;20973;-74
2021/10/05 04:51:21;;;;;;;15.00;9.18;;;;;;;12.59;100.00;95620.91;5127186;57;20249;-74
2021/10/05 04:56:23;;;;;;;13.60;8.75;;;;;;;12.79;100.00;95629.88;5120310;57;20136;-74
2021/10/05 05:01:26;;;;;;;12.73;8.43;;;;;;;12.73;100.00;95636.66;5120069;57;20131;-74
2021/10/05 05:06:29;;;;;;;10.80;8.05;;;;;;;12.85;100.00;95641.00;5119306;57;20154;-74
2021/10/05 05:11:31;;;;;;;12.13;8.38;;;;;;;12.75;100.00;95628.59;5119507;57;20131;-74
2021/10/05 05:16:35;;;;;;;12.70;8.80;;;;;;;12.75;100.00;95614.75;5119438;57;20122;-74
2021/10/05 05:21:37;;;;;;;13.40;9.40;;;;;;;12.93;100.00;95633.75;5119311;57;20139;-74
2021/10/05 05:26:40;;;;;;;13.05;8.90;;;;;;;12.90;100.00;95635.50;5119456;58;20122;-75
2021/10/05 05:31:42;;;;;;;14.30;9.45;;;;;;;13.02;100.00;95644.66;5126544;57;20140;-74
2021/10/05 05:36:45;;;;;;;16.05;9.48;;;;;;;12.93;100.00;95648.38;5119212;57;20130;-74
2021/10/05 05:41:47;;;;;;;17.05;10.30;;;;;;;12.76;100.00;95652.28;5122518;57;20130;-74
2021/10/05 05:46:49;;;;;;;16.30;9.88;;;;;;;12.75;100.00;95639.69;5122153;57;20694;-75
2021/10/05 05:51:52;;;;;;;14.75;9.25;;;;;;;12.78;100.00;95658.09;5122965;57;20587;-74
2021/10/05 05:56:54;;;;;;;13.98;9.43;;;;;;;12.75;100.00;95650.78;5121879;57;20660;-74
2021/10/05 06:01:56;;;;;;;15.73;10.25;;;;;;;12.67;100.00;95646.91;5121173;57;20126;-74
2021/10/05 06:06:59;;;;;;;13.13;8.93;;;;;;;12.66;100.00;95660.03;5121014;57;20219;-74
2021/10/05 06:12:04;;;;;;;14.60;9.30;;;;;;;12.66;100.00;95657.25;5121886;57;20127;-74
2021/10/05 06:17:07;;;;;;;13.10;8.40;;;;;;;12.88;100.00;95653.88;5113175;57;20126;-74
2021/10/05 06:22:09;;;;;;;14.07;9.00;;;;;;;12.91;100.00;95652.91;5122050;57;20140;-74
2021/10/05 06:27:12;;;;;;;16.23;8.90;;;;;;;12.92;100.00;95633.00;5121576;57;20830;-73
2021/10/05 06:32:14;;;;;;;11.80;7.82;;;;;;;12.98;100.00;95652.44;5121722;57;20131;-73
2021/10/05 06:37:16;;;;;;;15.30;9.82;;;;;;;12.68;100.00;95646.44;5121961;57;20131;-74
2021/10/05 06:42:19;;;;;;;16.58;8.30;;;;;;;12.81;100.00;95659.88;5121462;57;20135;-74
2021/10/05 06:47:21;;;;;;;13.25;7.70;;;;;;;12.76;100.00;95669.69;5121696;57;20127;-73
2021/10/05 06:52:24;;;;;;;13.50;8.43;;;;;;;12.80;100.00;95680.56;5121232;57;20118;-74
2021/10/05 06:57:27;;;;;;;14.27;7.65;;;;;;;12.91;100.00;95691.75;5121243;57;20149;-73
2021/10/05 07:02:29;;;;;;;13.10;7.05;;;;;;;13.04;99.97;95696.84;5121212;57;20136;-75
2021/10/05 07:07:31;;;;;;;12.70;7.63;;;;;;;13.29;99.35;95696.06;5118118;57;20224;-75
2021/10/05 07:12:34;;;;;;;11.63;6.82;;;;;;;13.32;98.42;95709.69;5111035;57;20128;-75
2021/10/05 07:17:37;;;;;;;12.93;6.75;;;;;;;13.52;98.13;95700.47;5111740;57;20127;-75
2021/10/05 07:22:39;;;;;;;13.10;7.45;;;;;;;13.32;98.90;95676.38;5119632;57;20171;-75
2021/10/05 07:27:50;;;;;;;13.02;7.20;;;;;;;13.84;96.39;95696.31;5119876;57;20145;-74
2021/10/05 07:32:58;;;;;;;13.13;6.07;;;;;;;14.05;95.72;95708.78;5118450;57;20130;-75
2021/10/05 07:38:01;;;;;;;8.20;6.23;;;;;;;13.83;97.01;95694.81;5117944;57;20117;-75
2021/10/05 07:43:04;;;;;;;11.00;6.45;;;;;;;14.47;93.65;95704.41;5116964;57;20153;-75
2021/10/05 07:48:06;;;;;;;11.05;5.72;;;;;;;14.20;93.25;95701.00;5120129;57;20122;-75
2021/10/05 07:53:08;;;;;;;8.73;6.28;;;;;;;14.23;94.82;95696.47;5119669;57;20126;-74
2021/10/05 07:58:11;;;;;;;9.63;5.82;;;;;;;14.11;95.25;95678.25;5119990;57;20216;-75
2021/10/05 08:03:13;;;;;;;8.93;5.53;;;;;;;14.41;93.64;95673.78;5119058;57;20691;-74
2021/10/05 08:08:16;;;;;;;6.97;4.47;;;;;;;14.51;92.40;95663.97;5117503;57;20158;-75
2021/10/05 08:13:18;;;;;;;10.27;5.30;;;;;;;14.29;95.50;95661.13;5118042;57;20131;-74
2021/10/05 08:18:21;;;;;;;7.10;4.82;;;;;;;14.43;94.21;95678.88;5114684;57;20127;-74
2021/10/05 08:23:23;;;;;;;8.73;5.30;;;;;;;14.20;92.69;95683.59;5116410;57;20132;-74
2021/10/05 08:28:26;;;;;;;5.50;4.22;;;;;;;14.32;94.01;95705.38;5116656;57;20109;-74
2021/10/05 08:33:28;;;;;;;6.75;5.13;;;;;;;14.36;91.32;95708.66;5115931;57;20132;-75
2021/10/05 08:38:32;;;;;;;6.82;4.60;;;;;;;14.42;91.70;95696.78;5115999;57;20717;-75
2021/10/05 08:43:34;;;;;;;6.28;4.13;;;;;;;14.91;89.99;95693.31;5114595;57;20127;-74
2021/10/05 08:48:38;;;;;;;5.70;3.75;;;;;;;14.86;89.72;95711.50;5114313;57;20118;-74
2021/10/05 08:53:40;;;;;;;4.82;3.63;;;;;;;15.06;88.76;95700.13;5115653;57;20747;-74
2021/10/05 08:58:43;;;;;;;4.78;2.95;;;;;;;15.04;89.20;95701.88;5107985;57;20655;-74
2021/10/05 09:03:52;;;;;;;6.07;4.20;;;;;;;14.99;88.24;95683.94;5113860;57;20131;-73
2021/10/05 09:08:55;;;;;;;5.50;4.43;;;;;;;15.01;90.39;95683.44;5114381;57;20664;-74
2021/10/05 09:13:57;;;;;;;7.05;4.88;;;;;;;14.83;89.61;95679.16;5116132;57;20122;-74
2021/10/05 09:19:09;;;;;;;8.60;5.07;;;;;;;15.56;88.39;95663.88;5113955;57;20235;-74
2021/10/05 09:24:25;;;;;;;8.27;4.82;;;;;;;15.93;86.73;95685.03;5116146;57;20140;-74
2021/10/05 09:29:32;;;;;;;11.48;6.35;;;;;;;16.04;87.12;95708.03;5089519;58;20123;-75
2021/10/05 09:34:35;;;;;;;4.93;3.92;;;;;;;15.95;86.21;95713.13;5104124;58;20144;-75
2021/10/05 09:39:39;;;;;;;6.22;4.85;;;;;;;15.83;87.60;95706.09;5116148;58;20227;-75
2021/10/05 09:44:42;;;;;;;6.43;4.90;;;;;;;16.41;83.92;95691.63;5116766;58;20131;-76
2021/10/05 09:49:45;;;;;;;4.03;3.67;;;;;;;16.08;86.24;95677.13;5117313;58;20117;-75
2021/10/05 09:54:47;;;;;;;6.45;3.90;;;;;;;16.08;84.75;95693.84;5115049;58;20144;-75
2021/10/05 09:59:49;;;;;;;6.57;3.60;;;;;;;16.02;83.21;95715.38;5116355;58;20168;-75
2021/10/05 10:04:52;;;;;;;4.68;3.47;;;;;;;16.38;82.16;95708.63;5113272;58;20141;-74
2021/10/05 10:09:55;;;;;;;3.92;3.53;;;;;;;16.53;79.92;95692.38;5117117;58;20141;-74
2021/10/05 10:14:58;;;;;;;4.97;3.83;;;;;;;16.91;79.74;95698.94;5118327;58;20643;-74
2021/10/05 10:20:00;;;;;;;3.95;3.53;;;;;;;16.72;78.72;95687.66;5116505;58;20123;-75
2021/10/05 10:25:04;;;;;;;11.75;3.63;;;;;;;16.97;78.42;95658.53;5115981;57;20604;-75
2021/10/05 10:30:09;;;;;;;3.80;3.38;;;;;;;16.96;77.26;95665.38;5118437;57;20122;-75
2021/10/05 10:35:11;;;;;;;3.55;3.20;;;;;;;16.18;79.41;95656.78;5120292;57;20113;-74
2021/10/05 10:40:16;;;;;;;3.45;3.13;;;;;;;15.83;81.83;95667.81;5120748;57;20159;-74
2021/10/05 10:45:20;;;;;;;3.17;2.90;;;;;;;16.66;82.08;95669.44;5121025;57;20162;-74
2021/10/05 10:50:36;;;;;;;4.28;2.70;;;;;;;16.92;75.45;95672.53;5121433;57;20951;-75
2021/10/05 10:55:38;;;;;;;3.13;2.83;;;;;;;16.82;76.54;95685.31;5110277;57;20122;-75
2021/10/05 11:00:48;;;;;;;4.28;2.22;;;;;;;16.53;75.58;95692.38;5120800;57;20154;-74
2021/10/05 11:05:51;;;;;;;2.78;2.58;;;;;;;16.12;79.28;95714.59;5120744;57;20131;-74
2021/10/05 11:11:02;;;;;;;3.58;2.90;;;;;;;16.40;79.25;95722.81;5120944;57;20118;-74
2021/10/05 11:16:04;;;;;;;3.92;2.35;;;;;;;16.23;79.11;95722.91;5120412;57;20126;-74
2021/10/05 11:21:09;;;;;;;2.53;2.33;;;;;;;16.57;78.77;95715.16;5120273;57;20132;-74
2021/10/05 11:26:12;;;;;;;2.22;2.13;;;;;;;16.81;76.16;95715.22;5117333;57;20317;-74
2021/10/05 11:31:15;;;;;;;3.53;2.47;;;;;;;16.71;76.62;95721.66;5119590;57;20127;-74
2021/10/05 11:36:25;;;;;;;2.92;2.53;;;;;;;16.47;78.04;95723.03;5116078;57;20140;-74
2021/10/05 11:41:41;;;;;;;3.63;3.03;;;;;;;16.87;74.41;95726.38;5118082;57;20145;-75
2021/10/05 11:47:01;;;;;;;2.60;2.40;;;;;;;16.70;77.96;95737.63;5116101;57;20123;-74
2021/10/05 11:52:08;;;;;;;3.63;3.00;;;;;;;16.36;78.10;95731.47;5107359;57;20135;-74
2021/10/05 11:57:15;;;;;;;3.38;2.95;;;;;;;16.02;80.23;95726.53;5114462;57;20136;-74
2021/10/05 12:02:22;;;;;;;3.60;3.30;;;;;;;15.86;80.99;95727.34;5112512;57;20127;-75
2021/10/05 12:07:26;;;;;;;8.75;3.97;;;;;;;15.95;82.15;95732.63;5113932;57;20964;-74
2021/10/05 12:12:34;;;;;;;5.32;4.07;;;;;;;15.78;81.77;95718.78;5119963;57;20122;-74
2021/10/05 12:17:36;;;;;;;4.93;3.83;;;;;;;15.48;81.93;95718.59;5120882;57;20136;-74
2021/10/05 12:22:42;;;;;;;3.58;3.28;;;;;;;16.03;79.54;95736.41;5117566;57;20146;-74
2021/10/05 12:27:48;;;;;;;5.57;3.60;;;;;;;16.19;77.74;95741.19;5119413;57;20646;-74
2021/10/05 12:32:51;;;;;;;3.22;2.75;;;;;;;16.48;75.71;95723.78;5119417;57;20104;-74
2021/10/05 12:38:20;;;;;;;2.58;2.38;;;;;;;16.77;75.61;95736.31;5116642;57;20131;-74
2021/10/05 12:43:39;;;;;;;2.40;2.20;;;;;;;17.10;73.04;95734.03;5115246;57;20194;-74
2021/10/05 12:48:50;;;;;;;3.92;2.60;;;;;;;16.67;72.42;95751.88;5118049;57;20113;-75
2021/10/05 12:53:57;;;;;;;;;;;;;;;16.58;72.82;95736.16;5119028;57;20123;-75
2021/10/05 12:59:00;;;;;;;2.97;2.67;;;;;;;16.90;73.47;95725.31;5117849;57;19978;-74
2021/10/05 13:04:06;;;;;;;2.65;2.45;;;;;;;16.34;73.01;95736.78;5113714;57;20656;-74
2021/10/05 13:09:10;;;;;;;2.33;2.22;;;;;;;16.81;74.74;95739.59;5118369;57;20114;-74
2021/10/05 13:14:12;;;;;;;2.78;2.30;;;;;;;16.93;71.51;95736.22;5118965;57;20113;-74
2021/10/05 13:19:18;;;;;;;2.58;2.38;;;;;;;16.56;73.70;95740.75;5118161;57;20157;-74
2021/10/05 13:24:21;;;;;;;2.90;2.60;;;;;;;16.62;75.89;95727.53;5109664;57;20135;-74
2021/10/05 13:29:23;;;;;;;2.35;2.25;;;;;;;16.57;73.34;95734.66;5107424;58;20230;-74
2021/10/05 13:34:25;;;;;;;2.40;2.30;;;;;;;16.74;75.28;95729.75;5118408;58;20126;-74
2021/10/05 13:39:28;;;;;;;2.60;2.40;;;;;;;16.54;73.64;95718.19;5117889;58;20188;-74
2021/10/05 13:44:31;;;;;;;2.22;2.13;;;;;;;16.88;73.38;95725.84;5115715;57;20562;-74
2021/10/05 13:49:34;;;;;;;2.72;2.53;;;;;;;16.28;74.97;95726.94;5115708;57;20131;-75
2021/10/05 13:54:36;;;;;;;2.80;2.60;;;;;;;16.39;74.16;95716.50;5111836;57;20132;-75
2021/10/05 13:59:38;;;;;;;2.50;2.30;;;;;;;16.64;75.07;95706.22;5110569;57;20121;-74
2021/10/05 14:04:42;;;;;;;2.85;2.50;;;;;;;16.74;74.88;95729.75;5114991;57;20171;-74
2021/10/05 14:09:45;;;;;;;2.20;2.10;;;;;;;16.93;76.10;95733.41;5120557;57;20136;-75
2021/10/05 14:14:49;;;;;;;2.30;2.10;;;;;;;17.11;73.32;95732.78;5121237;57;20272;-74
2021/10/05 14:19:51;;;;;;;4.45;2.35;;;;;;;16.98;78.19;95734.66;5120023;57;20131;-74
2021/10/05 14:24:53;;;;;;;4.10;2.40;;;;;;;16.95;74.72;95724.53;5111889;57;20144;-74
2021/10/05 14:29:57;;;;;;;2.78;2.58;;;;;;;16.72;73.67;95735.09;5120086;57;20140;-74
2021/10/05 14:35:00;;;;;;;2.53;2.33;;;;;;;16.61;77.41;95740.72;5112621;57;20173;-74
2021/10/05 14:40:03;;;;;;;3.28;2.83;;;;;;;16.53;76.95;95739.78;5115518;57;20126;-74
2021/10/05 14:45:07;;;;;;;2.20;2.05;;;;;;;16.45;77.18;95747.13;5119102;57;20695;-74
2021/10/05 14:50:09;;;;;;;2.70;2.00;;;;;;;16.35;78.55;95752.22;5123210;57;20998;-75
2021/10/05 14:55:12;;;;;;;2.35;2.15;;;;;;;16.15;80.97;95752.56;5119796;57;20575;-74
2021/10/05 15:00:15;;;;;;;2.38;2.17;;;;;;;16.21;81.81;95758.16;5119083;57;20140;-74
2021/10/05 15:05:17;;;;;;;5.40;1.92;;;;;;;15.95;82.36;95755.69;5119035;57;20717;-75
2021/10/05 15:10:20;;;;;;;2.65;2.45;;;;;;;15.74;86.16;95768.41;5117807;57;20131;-75
2021/10/05 15:15:24;;;;;;;3.25;2.53;;;;;;;15.48;87.21;95776.31;5115117;57;20131;-75
2021/10/05 15:20:26;;;;;;;5.05;2.40;;;;;;;15.36;89.94;95752.47;5119368;57;20114;-74
2021/10/05 15:25:29;;;;;;;5.57;3.30;;;;;;;15.02;92.62;95754.50;5109227;57;20122;-74
2021/10/05 15:30:31;;;;;;;3.80;3.50;;;;;;;15.21;93.06;95765.91;5119650;57;20123;-74
2021/10/05 15:35:34;;;;;;;11.55;7.20;;;;;;;14.82;95.38;95777.00;5118425;57;20579;-75
2021/10/05 15:40:37;;;;;;;5.97;5.28;;;;;;;14.81;95.74;95778.28;5118726;57;20118;-75
2021/10/05 15:45:39;;;;;;;5.07;2.80;;;;;;;14.72;94.76;95789.63;5118881;57;20127;-75
2021/10/05 15:50:54;;;;;;;3.08;2.78;;;;;;;14.74;94.20;95795.44;5118523;57;20598;-75
2021/10/05 15:55:57;;;;;;;3.42;2.70;;;;;;;14.86;93.35;95792.19;5118487;57;20122;-75
2021/10/05 16:00:59;;;;;;;4.18;2.33;;;;;;;14.82;94.20;95786.09;5117970;57;20122;-75
2021/10/05 16:06:02;;;;;;;2.28;2.13;;;;;;;14.79;94.08;95797.50;5119198;57;20131;-77
2021/10/05 16:11:06;;;;;;;1.98;1.70;;;;;;;14.63;93.93;95787.81;5117627;57;20561;-74
2021/10/05 16:16:08;;;;;;;1.70;1.60;;;;;;;14.52;93.79;95779.44;5117978;57;20122;-74
2021/10/05 16:21:12;;;;;;;2.10;2.00;;;;;;;14.52;94.16;95789.84;5115056;57;20127;-73
2021/10/05 16:26:14;;;;;;;1.80;1.70;;;;;;;14.42;95.09;95802.44;5109794;57;20126;-74
2021/10/05 16:31:17;;;;;;;3.95;2.30;;;;;;;14.35;96.09;95798.09;5108281;57;20224;-74
2021/10/05 16:36:19;;;;;;;4.40;3.00;;;;;;;14.28;97.12;95793.75;5118561;57;20127;-75
2021/10/05 16:41:22;;;;;;;3.47;2.10;;;;;;;14.29;96.97;95798.06;5118497;57;20917;-75
2021/10/05 16:46:24;;;;;;;4.47;2.40;;;;;;;14.24;97.20;95798.03;5119485;57;20143;-75
2021/10/05 16:51:26;;;;;;;2.20;2.00;;;;;;;14.11;98.17;95787.34;5109950;57;20224;-75
2021/10/05 16:56:29;;;;;;;2.05;1.85;;;;;;;14.03;98.93;95793.88;5117916;57;20140;-75
2021/10/05 17:01:32;;;;;;;2.47;2.28;;;;;;;14.08;98.77;95805.03;5117090;57;20606;-75
2021/10/05 17:06:35;;;;;;;4.32;2.50;;;;;;;13.93;99.94;95796.09;5118853;57;20606;-75
2021/10/05 17:11:38;;;;;;;4.07;2.75;;;;;;;14.01;99.60;95799.94;5114344;57;20114;-75
2021/10/05 17:16:40;;;;;;;2.67;2.15;;;;;;;14.01;99.55;95801.97;5115267;57;20122;-74
2021/10/05 17:21:43;;;;;;;3.22;2.00;;;;;;;13.97;100.00;95802.22;5113916;57;20705;-75
2021/10/05 17:26:46;;;;;;;2.10;2.00;;;;;;;13.89;100.00;95809.47;5112435;57;20135;-74
2021/10/05 17:31:49;;;;;;;2.17;2.08;;;;;;;14.02;100.00;95818.13;5116132;58;20777;-73
2021/10/05 17:36:52;;;;;;;2.60;2.40;;;;;;;14.02;100.00;95814.59;5116892;57;20656;-74
2021/10/05 17:41:54;;;;;;;2.05;1.95;;;;;;;14.07;99.95;95817.41;5113968;57;20220;-73
2021/10/05 17:46:58;;;;;;;3.28;2.17;;;;;;;14.06;100.00;95804.00;5118555;57;20140;-74
2021/10/05 17:52:01;;;;;;;2.33;2.13;;;;;;;13.99;100.00;95821.91;5114597;57;20135;-73
2021/10/05 17:57:03;;;;;;;2.00;1.90;;;;;;;13.86;100.00;95826.38;5117306;57;20131;-73
2021/10/05 18:02:06;;;;;;;3.53;1.92;;;;;;;13.91;100.00;95826.41;5110965;57;20117;-74
2021/10/05 18:07:09;;;;;;;2.00;1.90;;;;;;;13.87;100.00;95816.78;5119953;57;20164;-73
2021/10/05 18:12:11;;;;;;;2.60;2.10;;;;;;;13.77;100.00;95826.56;5116804;57;20123;-73
2021/10/05 18:17:13;;;;;;;2.00;1.90;;;;;;;13.81;100.00;95835.44;5115838;57;20171;-73
2021/10/05 18:22:15;;;;;;;4.93;2.20;;;;;;;13.75;100.00;95840.19;5119075;57;20694;-74
2021/10/05 18:27:21;;;;;;;2.75;2.20;;;;;;;13.65;100.00;95836.84;5118431;57;20592;-73
2021/10/05 18:43:26;;;;;;;2.55;1.98;;;;;;;13.84;100.00;95837.22;5290860;46;20645;-75
2021/10/05 18:48:28;;;;;;;2.13;1.92;;;;;;;13.86;100.00;95860.47;5158241;57;20129;-74
2021/10/05 18:53:33;;;;;;;3.33;2.05;;;;;;;13.84;100.00;95849.06;5160925;57;20124;-74
2021/10/05 18:58:38;;;;;;;1.88;1.77;;;;;;;13.93;100.00;95851.66;5160887;57;20692;-74
2021/10/05 19:03:43;;;;;;;2.72;1.90;;;;;;;13.87;100.00;95859.19;5149310;57;20134;-74
2021/10/05 19:08:45;;;;;;;2.22;1.83;;;;;;;13.76;100.00;95872.25;5156892;57;20112;-74
2021/10/05 19:13:48;;;;;;;1.83;1.73;;;;;;;13.70;100.00;95872.22;5159748;57;20203;-74
2021/10/05 19:18:50;;;;;;;2.10;1.90;;;;;;;13.68;100.00;95869.19;5156930;57;20600;-74
2021/10/05 19:23:57;;;;;;;2.67;2.47;;;;;;;13.77;100.00;95871.00;5159572;57;20143;-74
2021/10/05 19:28:59;;;;;;;2.47;2.28;;;;;;;13.68;100.00;95877.50;5156906;57;20134;-73
2021/10/05 19:34:02;;;;;;;2.17;1.98;;;;;;;13.78;100.00;95873.28;5160038;57;20125;-75
2021/10/05 19:39:04;;;;;;;4.65;2.35;;;;;;;13.62;100.00;95874.69;5159547;57;20134;-74
2021/10/05 19:44:06;;;;;;;2.17;2.00;;;;;;;13.60;100.00;95873.66;5155670;57;20125;-74
2021/10/05 19:49:09;;;;;;;2.03;1.90;;;;;;;13.62;100.00;95883.00;5158658;57;20134;-74
2021/10/05 19:54:11;;;;;;;2.08;1.98;;;;;;;13.76;100.00;95894.47;5156264;57;20652;-73
2021/10/05 19:59:13;;;;;;;2.42;2.22;;;;;;;13.72;100.00;95893.94;5151813;57;20129;-74
2021/10/05 20:04:16;;;;;;;2.40;2.20;;;;;;;13.71;100.00;95909.06;5155617;57;20103;-74
2021/10/05 20:09:18;;;;;;;1.70;1.60;;;;;;;13.55;100.00;95905.66;5157317;57;20156;-74
2021/10/05 20:14:20;;;;;;;1.70;1.60;;;;;;;13.64;100.00;95913.03;5157413;57;20581;-73
2021/10/05 20:19:23;;;;;;;1.90;1.80;;;;;;;13.66;100.00;95911.28;5156430;57;20680;-74
2021/10/05 20:36:35;;;;;;;1.63;1.52;;;;;;;13.55;100.00;95927.09;5100129;57;20134;-75
2021/10/05 20:41:39;;;;;;;1.60;1.50;;;;;;;13.69;100.00;95937.31;5145173;57;20578;-75
2021/10/05 20:46:42;;;;;;;1.98;1.75;;;;;;;13.55;100.00;95938.97;5154021;57;20134;-76
2021/10/05 20:51:44;;;;;;;2.50;1.50;;;;;;;13.68;100.00;95951.72;5158470;57;20121;-74
2021/10/05 20:56:46;;;;;;;1.58;1.48;;;;;;;13.66;100.00;95955.72;5153911;57;20215;-75
2021/10/05 21:01:49;;;;;;;2.35;1.42;;;;;;;13.63;100.00;95944.84;5144846;57;20117;-75
2021/10/05 21:07:38;;;;;;;1.45;1.35;;;;;;;13.61;100.00;95959.22;5189766;46;20226;-74
2021/10/05 21:24:15;;;;;;;1.70;1.60;;;;;;;13.44;99.97;95974.19;5146495;57;20145;-74
2021/10/05 21:29:17;;;;;;;1.25;1.10;;;;;;;13.62;95.67;95976.63;5138042;57;20125;-74
2021/10/05 21:34:19;;;;;;;1.02;1.02;;;;;;;13.61;96.94;95975.88;5139682;57;20129;-75
2021/10/05 21:39:22;;;;;;;1.45;1.00;;;;;;;13.49;96.87;95982.56;5130975;57;20125;-75
2021/10/05 21:44:26;;;;;;;0.90;0.90;;;;;;;13.48;99.23;95985.81;5138790;57;20139;-75
2021/10/05 21:49:28;;;;;;;0.88;0.88;;;;;;;13.44;100.00;95997.16;5138404;57;20130;-75
2021/10/05 21:54:30;;;;;;;1.20;1.10;;;;;;;13.40;100.00;95984.75;5138644;57;20732;-80
2021/10/05 21:59:33;;;;;;;1.13;1.00;;;;;;;13.29;100.00;95999.28;5138448;57;20135;-79
2021/10/05 22:04:35;;;;;;;2.63;1.27;;;;;;;13.26;100.00;95993.91;5138181;57;20126;-75
2021/10/05 22:09:39;;;;;;;1.35;1.20;;;;;;;13.36;100.00;96003.63;5155947;57;20128;-75
2021/10/05 22:14:44;;;;;;;4.97;1.20;;;;;;;13.34;100.00;96006.88;5158239;57;20112;-74
2021/10/05 22:19:46;;;;;;;1.58;1.00;;;;;;;13.32;100.00;96003.81;5157621;57;20130;-75
2021/10/05 22:24:49;;;;;;;3.42;1.15;;;;;;;13.29;100.00;96004.06;5161130;57;20124;-75
2021/10/05 22:29:51;;;;;;;1.95;1.00;;;;;;;13.28;100.00;95999.75;5161003;57;20125;-75
2021/10/05 22:34:58;;;;;;;4.35;1.10;;;;;;;13.28;100.00;96005.28;5140228;57;20126;-74
2021/10/05 22:40:07;;;;;;;1.05;1.05;;;;;;;13.26;100.00;96005.00;5139806;57;20233;-74
2021/10/05 22:45:15;;;;;;;0.90;0.90;;;;;;;13.31;100.00;96007.09;5141145;57;20134;-74
2021/10/05 22:50:19;;;;;;;1.10;1.00;;;;;;;13.33;100.00;96016.47;5160292;57;20125;-74
2021/10/05 22:55:21;;;;;;;1.70;0.82;;;;;;;13.27;100.00;96012.09;5160283;57;20129;-74
2021/10/05 23:00:24;;;;;;;0.80;0.80;;;;;;;13.23;100.00;96012.28;5160747;57;20129;-74
2021/10/05 23:05:26;;;;;;;0.90;0.90;;;;;;;13.17;100.00;96024.59;5160094;57;20137;-74
2021/10/05 23:10:29;;;;;;;1.10;0.85;;;;;;;13.15;100.00;96027.84;5151787;57;20778;-74
2021/10/05 23:15:31;;;;;;;0.65;0.65;;;;;;;13.19;100.00;96022.84;5160143;57;20120;-74
2021/10/05 23:20:34;;;;;;;1.98;0.93;;;;;;;13.20;100.00;96037.50;5149894;57;20139;-74
2021/10/05 23:25:37;;;;;;;1.85;0.70;;;;;;;13.07;100.00;96037.81;5158449;57;20125;-74
2021/10/05 23:30:39;;;;;;;3.22;0.90;;;;;;;13.12;100.00;96041.91;5159530;57;20108;-75
2021/10/05 23:35:42;;;;;;;0.80;0.80;;;;;;;13.11;100.00;96049.50;5159539;57;20160;-74
2021/10/05 23:40:44;;;;;;;0.88;0.88;;;;;;;13.09;100.00;96042.91;5158561;57;20120;-75
2021/10/05 23:45:46;;;;;;;0.63;0.63;;;;;;;13.19;100.00;96055.38;5150692;57;20156;-74
2021/10/05 23:50:49;;;;;;;0.90;0.90;;;;;;;13.25;100.00;96070.09;5158990;57;20152;-74
2021/10/05 23:55:51;;;;;;;2.22;0.82;;;;;;;13.21;100.00;96070.28;5158891;57;20134;-74
